sensor_id;sensor_type;location;lat;lon;timestamp;P1;durP1;ratioP1;P2;durP2;ratioP2
24843;SDS011;12921;51.392;12.240;2023-03-24T00:00:39;2.17;;;1.17;;
24843;SDS011;12921;51.392;12.240;2023-03-24T00:03:05;1.90;;;0.57;;
24843;SDS011;12921;51.392;12.240;2023-03-24T00:05:32;1.88;;;1.52;;
24843;SDS011;12921;51.392;12.240;2023-03-24T00:07:58;0.80;;;0.70;;
24843;SDS011;12921;51.392;12.240;2023-03-24T00:10:26;1.33;;;1.20;;
24843;SDS011;12921;51.392;12.240;2023-03-24T00:12:54;0.88;;;0.88;;
24843;SDS011;12921;51.392;12.240;2023-03-24T00:15:22;1.30;;;1.20;;
24843;SDS011;12921;51.392;12.240;2023-03-24T00:17:49;2.72;;;1.50;;
24843;SDS011;12921;51.392;12.240;2023-03-24T00:20:15;2.50;;;1.85;;
24843;SDS011;12921;51.392;12.240;2023-03-24T00:22:43;1.90;;;1.38;;
24843;SDS011;12921;51.392;12.240;2023-03-24T00:25:14;5.50;;;1.23;;
24843;SDS011;12921;51.392;12.240;2023-03-24T00:27:40;1.00;;;1.00;;
24843;SDS011;12921;51.392;12.240;2023-03-24T00:30:09;5.25;;;1.98;;
24843;SDS011;12921;51.392;12.240;2023-03-24T00:32:35;1.83;;;1.35;;
24843;SDS011;12921;51.392;12.240;2023-03-24T00:35:03;2.15;;;1.75;;
24843;SDS011;12921;51.392;12.240;2023-03-24T00:37:29;0.80;;;0.80;;
24843;SDS011;12921;51.392;12.240;2023-03-24T00:39:55;1.30;;;1.20;;
24843;SDS011;12921;51.392;12.240;2023-03-24T00:42:22;4.03;;;1.67;;
24843;SDS011;12921;51.392;12.240;2023-03-24T00:44:49;4.53;;;1.73;;
24843;SDS011;12921;51.392;12.240;2023-03-24T00:47:18;5.20;;;2.00;;
24843;SDS011;12921;51.392;12.240;2023-03-24T00:49:49;2.22;;;1.25;;
24843;SDS011;12921;51.392;12.240;2023-03-24T00:52:18;3.35;;;1.30;;
24843;SDS011;12921;51.392;12.240;2023-03-24T00:54:48;6.22;;;1.38;;
24843;SDS011;12921;51.392;12.240;2023-03-24T00:57:15;1.35;;;1.25;;
24843;SDS011;12921;51.392;12.240;2023-03-24T00:59:50;3.20;;;1.77;;
24843;SDS011;12921;51.392;12.240;2023-03-24T01:02:19;3.55;;;1.30;;
24843;SDS011;12921;51.392;12.240;2023-03-24T01:04:51;1.40;;;1.30;;
24843;SDS011;12921;51.392;12.240;2023-03-24T01:07:18;1.45;;;1.35;;
24843;SDS011;12921;51.392;12.240;2023-03-24T01:09:45;1.83;;;1.60;;
24843;SDS011;12921;51.392;12.240;2023-03-24T01:14:53;2.00;;;1.75;;
24843;SDS011;12921;51.392;12.240;2023-03-24T01:17:20;3.10;;;2.63;;
24843;SDS011;12921;51.392;12.240;2023-03-24T01:19:47;3.53;;;1.83;;
24843;SDS011;12921;51.392;12.240;2023-03-24T01:22:13;3.80;;;2.40;;
24843;SDS011;12921;51.392;12.240;2023-03-24T01:24:41;1.02;;;1.02;;
24843;SDS011;12921;51.392;12.240;2023-03-24T01:27:07;1.67;;;1.40;;
24843;SDS011;12921;51.392;12.240;2023-03-24T01:29:33;4.35;;;2.53;;
24843;SDS011;12921;51.392;12.240;2023-03-24T01:32:00;2.33;;;1.77;;
24843;SDS011;12921;51.392;12.240;2023-03-24T01:34:26;1.42;;;1.33;;
24843;SDS011;12921;51.392;12.240;2023-03-24T01:36:52;3.28;;;1.55;;
24843;SDS011;12921;51.392;12.240;2023-03-24T01:39:18;2.60;;;2.13;;
24843;SDS011;12921;51.392;12.240;2023-03-24T01:41:44;6.80;;;2.58;;
24843;SDS011;12921;51.392;12.240;2023-03-24T01:46:52;1.80;;;1.65;;
24843;SDS011;12921;51.392;12.240;2023-03-24T01:49:18;4.00;;;2.58;;
24843;SDS011;12921;51.392;12.240;2023-03-24T01:51:46;2.03;;;1.65;;
24843;SDS011;12921;51.392;12.240;2023-03-24T01:54:17;1.73;;;1.52;;
24843;SDS011;12921;51.392;12.240;2023-03-24T01:56:46;3.55;;;1.92;;
24843;SDS011;12921;51.392;12.240;2023-03-24T01:59:15;3.70;;;2.08;;
24843;SDS011;12921;51.392;12.240;2023-03-24T02:01:43;5.53;;;3.08;;
24843;SDS011;12921;51.392;12.240;2023-03-24T02:04:09;1.77;;;1.35;;
24843;SDS011;12921;51.392;12.240;2023-03-24T02:06:37;3.15;;;2.42;;
24843;SDS011;12921;51.392;12.240;2023-03-24T02:09:05;6.65;;;2.10;;
24843;SDS011;12921;51.392;12.240;2023-03-24T02:11:32;2.22;;;1.95;;
24843;SDS011;12921;51.392;12.240;2023-03-24T02:13:59;3.25;;;1.83;;
24843;SDS011;12921;51.392;12.240;2023-03-24T02:26:48;2.42;;;1.70;;
24843;SDS011;12921;51.392;12.240;2023-03-24T02:39:35;5.47;;;2.28;;
24843;SDS011;12921;51.392;12.240;2023-03-24T02:45:06;1.75;;;1.63;;
24843;SDS011;12921;51.392;12.240;2023-03-24T02:55:07;2.47;;;1.95;;
24843;SDS011;12921;51.392;12.240;2023-03-24T02:57:37;2.20;;;1.83;;
24843;SDS011;12921;51.392;12.240;2023-03-24T03:00:07;1.85;;;1.70;;
24843;SDS011;12921;51.392;12.240;2023-03-24T03:02:37;4.78;;;2.72;;
24843;SDS011;12921;51.392;12.240;2023-03-24T03:05:13;3.95;;;2.90;;
24843;SDS011;12921;51.392;12.240;2023-03-24T03:07:41;1.60;;;1.25;;
24843;SDS011;12921;51.392;12.240;2023-03-24T03:10:15;6.10;;;2.22;;
24843;SDS011;12921;51.392;12.240;2023-03-24T03:12:43;2.58;;;2.03;;
24843;SDS011;12921;51.392;12.240;2023-03-24T03:15:13;3.70;;;2.15;;
24843;SDS011;12921;51.392;12.240;2023-03-24T03:17:42;3.80;;;3.00;;
24843;SDS011;12921;51.392;12.240;2023-03-24T03:20:13;7.93;;;2.60;;
24843;SDS011;12921;51.392;12.240;2023-03-24T03:22:52;3.05;;;2.25;;
24843;SDS011;12921;51.392;12.240;2023-03-24T03:25:23;5.60;;;2.40;;
24843;SDS011;12921;51.392;12.240;2023-03-24T03:27:49;2.88;;;2.00;;
24843;SDS011;12921;51.392;12.240;2023-03-24T03:30:21;4.05;;;3.03;;
24843;SDS011;12921;51.392;12.240;2023-03-24T03:32:51;2.13;;;1.92;;
24843;SDS011;12921;51.392;12.240;2023-03-24T03:35:21;5.28;;;2.67;;
24843;SDS011;12921;51.392;12.240;2023-03-24T03:40:22;3.30;;;2.35;;
24843;SDS011;12921;51.392;12.240;2023-03-24T03:42:50;3.60;;;1.85;;
24843;SDS011;12921;51.392;12.240;2023-03-24T03:45:16;2.53;;;2.33;;
24843;SDS011;12921;51.392;12.240;2023-03-24T03:47:42;3.58;;;3.28;;
24843;SDS011;12921;51.392;12.240;2023-03-24T03:50:08;3.30;;;2.45;;
24843;SDS011;12921;51.392;12.240;2023-03-24T03:52:36;2.40;;;1.98;;
24843;SDS011;12921;51.392;12.240;2023-03-24T03:55:03;10.38;;;4.60;;
24843;SDS011;12921;51.392;12.240;2023-03-24T03:57:30;2.22;;;2.00;;
24843;SDS011;12921;51.392;12.240;2023-03-24T03:59:56;4.68;;;3.38;;
24843;SDS011;12921;51.392;12.240;2023-03-24T04:02:36;4.70;;;2.80;;
24843;SDS011;12921;51.392;12.240;2023-03-24T04:05:10;1.65;;;1.55;;
24843;SDS011;12921;51.392;12.240;2023-03-24T04:12:48;3.08;;;2.38;;
24843;SDS011;12921;51.392;12.240;2023-03-24T04:23:23;1.50;;;1.40;;
24843;SDS011;12921;51.392;12.240;2023-03-24T04:26:05;3.40;;;2.70;;
24843;SDS011;12921;51.392;12.240;2023-03-24T04:28:37;2.97;;;1.92;;
24843;SDS011;12921;51.392;12.240;2023-03-24T04:33:42;4.03;;;1.85;;
24843;SDS011;12921;51.392;12.240;2023-03-24T04:36:13;3.58;;;1.80;;
24843;SDS011;12921;51.392;12.240;2023-03-24T04:38:41;4.60;;;2.40;;
24843;SDS011;12921;51.392;12.240;2023-03-24T04:41:09;7.43;;;2.53;;
24843;SDS011;12921;51.392;12.240;2023-03-24T04:43:36;3.45;;;2.65;;
24843;SDS011;12921;51.392;12.240;2023-03-24T04:46:03;4.38;;;2.25;;
24843;SDS011;12921;51.392;12.240;2023-03-24T04:48:29;2.58;;;1.65;;
24843;SDS011;12921;51.392;12.240;2023-03-24T04:50:56;4.80;;;2.30;;
24843;SDS011;12921;51.392;12.240;2023-03-24T04:53:23;4.20;;;2.22;;
24843;SDS011;12921;51.392;12.240;2023-03-24T04:58:15;1.63;;;1.52;;
24843;SDS011;12921;51.392;12.240;2023-03-24T05:00:42;2.17;;;1.98;;
24843;SDS011;12921;51.392;12.240;2023-03-24T05:03:09;3.80;;;2.97;;
24843;SDS011;12921;51.392;12.240;2023-03-24T05:05:38;3.05;;;2.45;;
24843;SDS011;12921;51.392;12.240;2023-03-24T05:08:05;3.67;;;3.30;;
24843;SDS011;12921;51.392;12.240;2023-03-24T05:10:33;1.17;;;0.98;;
24843;SDS011;12921;51.392;12.240;2023-03-24T05:12:59;1.17;;;1.08;;
24843;SDS011;12921;51.392;12.240;2023-03-24T05:15:25;1.98;;;1.60;;
24843;SDS011;12921;51.392;12.240;2023-03-24T05:17:51;7.38;;;2.58;;
24843;SDS011;12921;51.392;12.240;2023-03-24T05:20:17;4.68;;;1.80;;
24843;SDS011;12921;51.392;12.240;2023-03-24T05:22:43;2.65;;;2.45;;
24843;SDS011;12921;51.392;12.240;2023-03-24T05:25:10;1.55;;;1.17;;
24843;SDS011;12921;51.392;12.240;2023-03-24T05:27:36;2.72;;;2.13;;
24843;SDS011;12921;51.392;12.240;2023-03-24T05:30:03;2.42;;;1.92;;
24843;SDS011;12921;51.392;12.240;2023-03-24T05:32:30;0.75;;;0.75;;
24843;SDS011;12921;51.392;12.240;2023-03-24T05:34:56;2.75;;;2.08;;
24843;SDS011;12921;51.392;12.240;2023-03-24T05:37:22;1.38;;;1.25;;
24843;SDS011;12921;51.392;12.240;2023-03-24T05:39:48;2.22;;;1.90;;
24843;SDS011;12921;51.392;12.240;2023-03-24T05:42:15;3.08;;;2.42;;
24843;SDS011;12921;51.392;12.240;2023-03-24T05:44:42;6.50;;;4.25;;
24843;SDS011;12921;51.392;12.240;2023-03-24T05:47:08;4.13;;;3.08;;
24843;SDS011;12921;51.392;12.240;2023-03-24T05:49:34;4.38;;;2.67;;
24843;SDS011;12921;51.392;12.240;2023-03-24T05:52:00;3.55;;;3.25;;
24843;SDS011;12921;51.392;12.240;2023-03-24T05:54:27;1.50;;;1.38;;
24843;SDS011;12921;51.392;12.240;2023-03-24T05:56:53;10.75;;;1.67;;
24843;SDS011;12921;51.392;12.240;2023-03-24T05:59:19;4.05;;;2.08;;
24843;SDS011;12921;51.392;12.240;2023-03-24T06:01:45;3.13;;;2.13;;
24843;SDS011;12921;51.392;12.240;2023-03-24T06:04:12;5.65;;;2.95;;
24843;SDS011;12921;51.392;12.240;2023-03-24T06:06:38;1.98;;;1.48;;
24843;SDS011;12921;51.392;12.240;2023-03-24T06:09:05;3.42;;;2.00;;
24843;SDS011;12921;51.392;12.240;2023-03-24T06:11:31;2.83;;;2.03;;
24843;SDS011;12921;51.392;12.240;2023-03-24T06:13:57;3.50;;;1.92;;
24843;SDS011;12921;51.392;12.240;2023-03-24T06:16:26;3.90;;;3.42;;
24843;SDS011;12921;51.392;12.240;2023-03-24T06:18:53;0.75;;;0.68;;
24843;SDS011;12921;51.392;12.240;2023-03-24T06:21:19;2.88;;;2.15;;
24843;SDS011;12921;51.392;12.240;2023-03-24T06:23:45;2.75;;;2.40;;
24843;SDS011;12921;51.392;12.240;2023-03-24T06:26:12;3.67;;;1.50;;
24843;SDS011;12921;51.392;12.240;2023-03-24T06:28:38;1.67;;;1.58;;
24843;SDS011;12921;51.392;12.240;2023-03-24T06:31:06;2.97;;;2.00;;
24843;SDS011;12921;51.392;12.240;2023-03-24T06:33:38;1.90;;;1.75;;
24843;SDS011;12921;51.392;12.240;2023-03-24T06:36:04;4.28;;;2.28;;
24843;SDS011;12921;51.392;12.240;2023-03-24T06:38:31;3.65;;;1.98;;
24843;SDS011;12921;51.392;12.240;2023-03-24T06:41:01;2.55;;;2.03;;
24843;SDS011;12921;51.392;12.240;2023-03-24T06:43:27;1.98;;;1.73;;
24843;SDS011;12921;51.392;12.240;2023-03-24T06:45:54;2.95;;;2.47;;
24843;SDS011;12921;51.392;12.240;2023-03-24T06:48:20;3.53;;;1.88;;
24843;SDS011;12921;51.392;12.240;2023-03-24T06:50:46;2.47;;;2.13;;
24843;SDS011;12921;51.392;12.240;2023-03-24T06:53:12;5.55;;;2.25;;
24843;SDS011;12921;51.392;12.240;2023-03-24T06:55:38;0.55;;;0.55;;
24843;SDS011;12921;51.392;12.240;2023-03-24T06:58:04;4.95;;;2.80;;
24843;SDS011;12921;51.392;12.240;2023-03-24T07:00:31;2.78;;;2.25;;
24843;SDS011;12921;51.392;12.240;2023-03-24T07:02:58;4.18;;;2.22;;
24843;SDS011;12921;51.392;12.240;2023-03-24T07:05:26;2.65;;;2.33;;
24843;SDS011;12921;51.392;12.240;2023-03-24T07:07:52;3.47;;;2.17;;
24843;SDS011;12921;51.392;12.240;2023-03-24T07:10:18;2.58;;;2.13;;
24843;SDS011;12921;51.392;12.240;2023-03-24T07:12:45;2.17;;;1.75;;
24843;SDS011;12921;51.392;12.240;2023-03-24T07:15:12;2.45;;;2.25;;
24843;SDS011;12921;51.392;12.240;2023-03-24T07:17:39;10.02;;;2.50;;
24843;SDS011;12921;51.392;12.240;2023-03-24T07:20:05;1.50;;;1.40;;
24843;SDS011;12921;51.392;12.240;2023-03-24T07:22:32;2.40;;;1.95;;
24843;SDS011;12921;51.392;12.240;2023-03-24T07:24:59;3.80;;;2.35;;
24843;SDS011;12921;51.392;12.240;2023-03-24T07:27:28;2.10;;;1.83;;
24843;SDS011;12921;51.392;12.240;2023-03-24T07:29:54;2.30;;;1.92;;
24843;SDS011;12921;51.392;12.240;2023-03-24T07:32:20;4.30;;;2.53;;
24843;SDS011;12921;51.392;12.240;2023-03-24T07:34:46;2.53;;;2.08;;
24843;SDS011;12921;51.392;12.240;2023-03-24T07:37:13;2.38;;;1.98;;
24843;SDS011;12921;51.392;12.240;2023-03-24T07:39:39;2.42;;;2.00;;
24843;SDS011;12921;51.392;12.240;2023-03-24T07:42:05;3.70;;;2.20;;
24843;SDS011;12921;51.392;12.240;2023-03-24T07:44:31;2.20;;;2.00;;
24843;SDS011;12921;51.392;12.240;2023-03-24T07:46:57;3.80;;;2.30;;
24843;SDS011;12921;51.392;12.240;2023-03-24T07:49:23;2.60;;;1.67;;
24843;SDS011;12921;51.392;12.240;2023-03-24T07:51:49;3.00;;;2.50;;
24843;SDS011;12921;51.392;12.240;2023-03-24T07:54:16;4.18;;;2.10;;
24843;SDS011;12921;51.392;12.240;2023-03-24T07:56:41;3.15;;;2.40;;
24843;SDS011;12921;51.392;12.240;2023-03-24T07:59:08;1.20;;;1.10;;
24843;SDS011;12921;51.392;12.240;2023-03-24T08:01:34;2.25;;;1.55;;
24843;SDS011;12921;51.392;12.240;2023-03-24T08:04:01;3.88;;;1.65;;
24843;SDS011;12921;51.392;12.240;2023-03-24T08:06:27;2.90;;;1.80;;
24843;SDS011;12921;51.392;12.240;2023-03-24T08:08:53;3.88;;;1.50;;
24843;SDS011;12921;51.392;12.240;2023-03-24T08:11:19;1.45;;;1.35;;
24843;SDS011;12921;51.392;12.240;2023-03-24T08:13:46;5.85;;;1.65;;
24843;SDS011;12921;51.392;12.240;2023-03-24T08:16:11;2.03;;;1.90;;
24843;SDS011;12921;51.392;12.240;2023-03-24T08:18:38;2.60;;;1.98;;
24843;SDS011;12921;51.392;12.240;2023-03-24T08:21:04;2.47;;;2.15;;
24843;SDS011;12921;51.392;12.240;2023-03-24T08:23:30;1.50;;;1.40;;
24843;SDS011;12921;51.392;12.240;2023-03-24T08:25:56;2.25;;;1.25;;
24843;SDS011;12921;51.392;12.240;2023-03-24T08:28:22;2.05;;;1.85;;
24843;SDS011;12921;51.392;12.240;2023-03-24T08:30:49;1.70;;;1.30;;
24843;SDS011;12921;51.392;12.240;2023-03-24T08:33:15;1.30;;;1.00;;
24843;SDS011;12921;51.392;12.240;2023-03-24T08:35:41;1.58;;;1.17;;
24843;SDS011;12921;51.392;12.240;2023-03-24T08:38:09;1.38;;;1.27;;
24843;SDS011;12921;51.392;12.240;2023-03-24T08:40:36;0.88;;;0.88;;
24843;SDS011;12921;51.392;12.240;2023-03-24T08:43:03;2.22;;;1.50;;
24843;SDS011;12921;51.392;12.240;2023-03-24T08:45:32;1.58;;;1.10;;
24843;SDS011;12921;51.392;12.240;2023-03-24T08:47:59;2.67;;;1.10;;
24843;SDS011;12921;51.392;12.240;2023-03-24T08:50:26;2.13;;;1.33;;
24843;SDS011;12921;51.392;12.240;2023-03-24T08:52:53;1.30;;;1.20;;
24843;SDS011;12921;51.392;12.240;2023-03-24T08:55:20;1.20;;;1.10;;
24843;SDS011;12921;51.392;12.240;2023-03-24T08:57:46;2.80;;;0.80;;
24843;SDS011;12921;51.392;12.240;2023-03-24T09:00:13;0.82;;;0.82;;
24843;SDS011;12921;51.392;12.240;2023-03-24T09:02:44;1.17;;;1.05;;
24843;SDS011;12921;51.392;12.240;2023-03-24T09:05:10;0.40;;;0.40;;
24843;SDS011;12921;51.392;12.240;2023-03-24T09:07:37;1.17;;;1.05;;
24843;SDS011;12921;51.392;12.240;2023-03-24T09:10:04;1.00;;;0.90;;
24843;SDS011;12921;51.392;12.240;2023-03-24T09:12:32;1.42;;;1.27;;
24843;SDS011;12921;51.392;12.240;2023-03-24T09:14:58;0.70;;;0.70;;
24843;SDS011;12921;51.392;12.240;2023-03-24T09:17:24;0.90;;;0.90;;
24843;SDS011;12921;51.392;12.240;2023-03-24T09:19:50;0.80;;;0.80;;
24843;SDS011;12921;51.392;12.240;2023-03-24T09:22:16;0.75;;;0.75;;
24843;SDS011;12921;51.392;12.240;2023-03-24T09:24:42;1.10;;;1.00;;
24843;SDS011;12921;51.392;12.240;2023-03-24T09:27:08;0.63;;;0.43;;
24843;SDS011;12921;51.392;12.240;2023-03-24T09:29:34;0.70;;;0.70;;
24843;SDS011;12921;51.392;12.240;2023-03-24T09:32:00;1.80;;;0.85;;
24843;SDS011;12921;51.392;12.240;2023-03-24T09:34:27;0.85;;;0.85;;
24843;SDS011;12921;51.392;12.240;2023-03-24T09:36:53;0.80;;;0.73;;
24843;SDS011;12921;51.392;12.240;2023-03-24T09:39:19;1.55;;;1.45;;
24843;SDS011;12921;51.392;12.240;2023-03-24T09:41:45;1.15;;;0.95;;
24843;SDS011;12921;51.392;12.240;2023-03-24T09:46:48;0.15;;;0.15;;
24843;SDS011;12921;51.392;12.240;2023-03-24T09:49:16;1.48;;;1.38;;
24843;SDS011;12921;51.392;12.240;2023-03-24T09:51:47;0.60;;;0.60;;
24843;SDS011;12921;51.392;12.240;2023-03-24T09:56:42;1.58;;;1.48;;
24843;SDS011;12921;51.392;12.240;2023-03-24T10:01:37;1.13;;;0.93;;
24843;SDS011;12921;51.392;12.240;2023-03-24T10:04:03;0.80;;;0.80;;
24843;SDS011;12921;51.392;12.240;2023-03-24T10:06:30;1.45;;;1.35;;
24843;SDS011;12921;51.392;12.240;2023-03-24T10:11:44;1.20;;;1.10;;
24843;SDS011;12921;51.392;12.240;2023-03-24T10:14:16;0.98;;;0.98;;
24843;SDS011;12921;51.392;12.240;2023-03-24T10:16:53;1.83;;;1.13;;
24843;SDS011;12921;51.392;12.240;2023-03-24T10:24:55;1.30;;;1.02;;
24843;SDS011;12921;51.392;12.240;2023-03-24T10:27:29;1.92;;;0.90;;
24843;SDS011;12921;51.392;12.240;2023-03-24T10:30:02;4.97;;;0.90;;
24843;SDS011;12921;51.392;12.240;2023-03-24T10:32:31;0.75;;;0.63;;
24843;SDS011;12921;51.392;12.240;2023-03-24T10:34:59;0.68;;;0.68;;
24843;SDS011;12921;51.392;12.240;2023-03-24T10:37:33;1.70;;;0.73;;
24843;SDS011;12921;51.392;12.240;2023-03-24T10:39:59;0.57;;;0.57;;
24843;SDS011;12921;51.392;12.240;2023-03-24T10:42:27;0.98;;;0.98;;
24843;SDS011;12921;51.392;12.240;2023-03-24T10:44:56;1.13;;;1.02;;
24843;SDS011;12921;51.392;12.240;2023-03-24T10:47:26;0.50;;;0.50;;
24843;SDS011;12921;51.392;12.240;2023-03-24T10:49:57;0.57;;;0.57;;
24843;SDS011;12921;51.392;12.240;2023-03-24T10:52:24;0.30;;;0.30;;
24843;SDS011;12921;51.392;12.240;2023-03-24T10:54:54;0.30;;;0.30;;
24843;SDS011;12921;51.392;12.240;2023-03-24T10:57:21;1.42;;;1.33;;
24843;SDS011;12921;51.392;12.240;2023-03-24T10:59:55;0.35;;;0.35;;
24843;SDS011;12921;51.392;12.240;2023-03-24T11:02:31;1.05;;;0.82;;
24843;SDS011;12921;51.392;12.240;2023-03-24T11:04:59;8.65;;;0.70;;
24843;SDS011;12921;51.392;12.240;2023-03-24T11:07:33;0.40;;;0.40;;
24843;SDS011;12921;51.392;12.240;2023-03-24T11:12:36;0.38;;;0.38;;
24843;SDS011;12921;51.392;12.240;2023-03-24T11:15:19;0.30;;;0.22;;
24843;SDS011;12921;51.392;12.240;2023-03-24T11:17:46;3.78;;;0.82;;
24843;SDS011;12921;51.392;12.240;2023-03-24T11:20:16;0.17;;;0.17;;
24843;SDS011;12921;51.392;12.240;2023-03-24T11:22:49;3.78;;;0.38;;
24843;SDS011;12921;51.392;12.240;2023-03-24T11:25:20;1.13;;;0.88;;
24843;SDS011;12921;51.392;12.240;2023-03-24T11:27:50;0.13;;;0.13;;
24843;SDS011;12921;51.392;12.240;2023-03-24T11:30:16;0.40;;;0.40;;
24843;SDS011;12921;51.392;12.240;2023-03-24T11:32:45;0.47;;;0.47;;
24843;SDS011;12921;51.392;12.240;2023-03-24T11:35:14;0.32;;;0.32;;
24843;SDS011;12921;51.392;12.240;2023-03-24T11:37:41;0.40;;;0.40;;
24843;SDS011;12921;51.392;12.240;2023-03-24T11:42:40;0.45;;;0.45;;
24843;SDS011;12921;51.392;12.240;2023-03-24T11:45:18;2.85;;;0.47;;
24843;SDS011;12921;51.392;12.240;2023-03-24T11:47:45;1.13;;;0.22;;
24843;SDS011;12921;51.392;12.240;2023-03-24T11:55:16;0.13;;;0.13;;
24843;SDS011;12921;51.392;12.240;2023-03-24T12:00:25;0.15;;;0.15;;
24843;SDS011;12921;51.392;12.240;2023-03-24T12:07:57;0.10;;;0.10;;
24843;SDS011;12921;51.392;12.240;2023-03-24T12:13:16;0.45;;;0.38;;
24843;SDS011;12921;51.392;12.240;2023-03-24T12:15:49;1.00;;;0.95;;
24843;SDS011;12921;51.392;12.240;2023-03-24T12:26:18;1.48;;;0.68;;
24843;SDS011;12921;51.392;12.240;2023-03-24T12:28:49;0.95;;;0.80;;
24843;SDS011;12921;51.392;12.240;2023-03-24T12:39:13;3.25;;;1.00;;
24843;SDS011;12921;51.392;12.240;2023-03-24T12:49:50;1.63;;;0.95;;
24843;SDS011;12921;51.392;12.240;2023-03-24T12:55:12;0.82;;;0.60;;
24843;SDS011;12921;51.392;12.240;2023-03-24T12:57:50;1.55;;;0.68;;
24843;SDS011;12921;51.392;12.240;2023-03-24T13:00:21;2.20;;;0.95;;
24843;SDS011;12921;51.392;12.240;2023-03-24T13:03:05;2.08;;;0.93;;
24843;SDS011;12921;51.392;12.240;2023-03-24T13:05:56;0.50;;;0.50;;
24843;SDS011;12921;51.392;12.240;2023-03-24T13:08:22;0.55;;;0.20;;
24843;SDS011;12921;51.392;12.240;2023-03-24T13:10:53;1.08;;;0.85;;
24843;SDS011;12921;51.392;12.240;2023-03-24T13:13:26;1.52;;;1.17;;
24843;SDS011;12921;51.392;12.240;2023-03-24T13:15:54;0.30;;;0.30;;
24843;SDS011;12921;51.392;12.240;2023-03-24T13:18:31;0.10;;;0.10;;
24843;SDS011;12921;51.392;12.240;2023-03-24T13:21:00;0.30;;;0.30;;
24843;SDS011;12921;51.392;12.240;2023-03-24T13:26:05;1.38;;;0.90;;
24843;SDS011;12921;51.392;12.240;2023-03-24T13:31:20;0.97;;;0.30;;
24843;SDS011;12921;51.392;12.240;2023-03-24T13:33:51;0.57;;;0.50;;
24843;SDS011;12921;51.392;12.240;2023-03-24T13:39:05;0.28;;;0.28;;
24843;SDS011;12921;51.392;12.240;2023-03-24T13:41:34;1.00;;;0.80;;
24843;SDS011;12921;51.392;12.240;2023-03-24T13:44:08;2.10;;;1.02;;
24843;SDS011;12921;51.392;12.240;2023-03-24T13:46:40;2.63;;;0.98;;
24843;SDS011;12921;51.392;12.240;2023-03-24T13:49:10;0.85;;;0.85;;
24843;SDS011;12921;51.392;12.240;2023-03-24T13:51:36;0.95;;;0.80;;
24843;SDS011;12921;51.392;12.240;2023-03-24T13:54:10;0.68;;;0.55;;
24843;SDS011;12921;51.392;12.240;2023-03-24T13:56:39;1.05;;;0.82;;
24843;SDS011;12921;51.392;12.240;2023-03-24T14:06:47;1.77;;;1.10;;
24843;SDS011;12921;51.392;12.240;2023-03-24T14:11:43;1.90;;;1.35;;
24843;SDS011;12921;51.392;12.240;2023-03-24T14:19:18;1.27;;;0.77;;
24843;SDS011;12921;51.392;12.240;2023-03-24T14:21:54;0.80;;;0.73;;
24843;SDS011;12921;51.392;12.240;2023-03-24T14:24:25;0.85;;;0.70;;
24843;SDS011;12921;51.392;12.240;2023-03-24T14:26:52;0.98;;;0.88;;
24843;SDS011;12921;51.392;12.240;2023-03-24T14:29:34;0.45;;;0.45;;
24843;SDS011;12921;51.392;12.240;2023-03-24T14:32:01;2.10;;;1.20;;
24843;SDS011;12921;51.392;12.240;2023-03-24T14:34:27;1.88;;;1.20;;
24843;SDS011;12921;51.392;12.240;2023-03-24T14:36:58;3.83;;;0.85;;
24843;SDS011;12921;51.392;12.240;2023-03-24T14:45:09;0.65;;;0.55;;
24843;SDS011;12921;51.392;12.240;2023-03-24T14:47:48;1.50;;;0.88;;
24843;SDS011;12921;51.392;12.240;2023-03-24T14:50:22;2.00;;;0.70;;
24843;SDS011;12921;51.392;12.240;2023-03-24T14:52:58;5.40;;;0.82;;
24843;SDS011;12921;51.392;12.240;2023-03-24T14:55:24;2.25;;;1.20;;
24843;SDS011;12921;51.392;12.240;2023-03-24T14:57:52;2.83;;;0.85;;
24843;SDS011;12921;51.392;12.240;2023-03-24T15:00:42;1.10;;;0.60;;
24843;SDS011;12921;51.392;12.240;2023-03-24T15:03:20;3.15;;;0.80;;
24843;SDS011;12921;51.392;12.240;2023-03-24T15:05:48;2.05;;;0.85;;
24843;SDS011;12921;51.392;12.240;2023-03-24T15:08:18;0.75;;;0.73;;
24843;SDS011;12921;51.392;12.240;2023-03-24T15:15:56;3.23;;;1.13;;
24843;SDS011;12921;51.392;12.240;2023-03-24T15:18:22;0.82;;;0.77;;
24843;SDS011;12921;51.392;12.240;2023-03-24T15:20:52;2.80;;;0.98;;
24843;SDS011;12921;51.392;12.240;2023-03-24T15:23:19;0.20;;;0.20;;
24843;SDS011;12921;51.392;12.240;2023-03-24T15:25:45;2.35;;;0.80;;
24843;SDS011;12921;51.392;12.240;2023-03-24T15:28:24;2.17;;;0.60;;
24843;SDS011;12921;51.392;12.240;2023-03-24T15:30:50;2.92;;;0.50;;
24843;SDS011;12921;51.392;12.240;2023-03-24T15:33:17;0.20;;;0.20;;
24843;SDS011;12921;51.392;12.240;2023-03-24T15:35:43;0.93;;;0.38;;
24843;SDS011;12921;51.392;12.240;2023-03-24T15:38:28;1.02;;;0.50;;
24843;SDS011;12921;51.392;12.240;2023-03-24T15:40:56;1.25;;;1.23;;
24843;SDS011;12921;51.392;12.240;2023-03-24T15:43:23;1.08;;;0.90;;
24843;SDS011;12921;51.392;12.240;2023-03-24T15:45:54;2.53;;;1.00;;
24843;SDS011;12921;51.392;12.240;2023-03-24T15:48:21;2.03;;;1.00;;
24843;SDS011;12921;51.392;12.240;2023-03-24T15:51:01;2.05;;;0.93;;
24843;SDS011;12921;51.392;12.240;2023-03-24T15:53:29;3.17;;;0.70;;
24843;SDS011;12921;51.392;12.240;2023-03-24T15:58:47;0.57;;;0.52;;
24843;SDS011;12921;51.392;12.240;2023-03-24T16:01:14;0.30;;;0.30;;
24843;SDS011;12921;51.392;12.240;2023-03-24T16:03:42;3.63;;;0.50;;
24843;SDS011;12921;51.392;12.240;2023-03-24T16:06:13;1.55;;;0.65;;
24843;SDS011;12921;51.392;12.240;2023-03-24T16:08:40;4.25;;;0.93;;
24843;SDS011;12921;51.392;12.240;2023-03-24T16:11:11;0.28;;;0.28;;
24843;SDS011;12921;51.392;12.240;2023-03-24T16:13:41;2.60;;;0.95;;
24843;SDS011;12921;51.392;12.240;2023-03-24T16:18:41;2.97;;;1.02;;
24843;SDS011;12921;51.392;12.240;2023-03-24T16:21:14;2.05;;;0.90;;
24843;SDS011;12921;51.392;12.240;2023-03-24T16:23:41;1.30;;;1.20;;
24843;SDS011;12921;51.392;12.240;2023-03-24T16:26:29;0.43;;;0.43;;
24843;SDS011;12921;51.392;12.240;2023-03-24T16:28:54;0.25;;;0.25;;
24843;SDS011;12921;51.392;12.240;2023-03-24T16:33:48;4.20;;;1.00;;
24843;SDS011;12921;51.392;12.240;2023-03-24T16:36:15;0.13;;;0.13;;
24843;SDS011;12921;51.392;12.240;2023-03-24T16:38:43;0.40;;;0.32;;
24843;SDS011;12921;51.392;12.240;2023-03-24T16:41:10;0.73;;;0.73;;
24843;SDS011;12921;51.392;12.240;2023-03-24T16:43:43;1.38;;;0.93;;
24843;SDS011;12921;51.392;12.240;2023-03-24T16:46:16;2.45;;;1.05;;
24843;SDS011;12921;51.392;12.240;2023-03-24T16:48:43;0.22;;;0.22;;
24843;SDS011;12921;51.392;12.240;2023-03-24T16:51:13;0.50;;;0.50;;
24843;SDS011;12921;51.392;12.240;2023-03-24T16:53:40;3.35;;;0.90;;
24843;SDS011;12921;51.392;12.240;2023-03-24T16:56:06;1.85;;;0.82;;
24843;SDS011;12921;51.392;12.240;2023-03-24T16:58:32;0.57;;;0.57;;
24843;SDS011;12921;51.392;12.240;2023-03-24T17:00:58;1.15;;;0.63;;
24843;SDS011;12921;51.392;12.240;2023-03-24T17:03:25;4.90;;;1.02;;
24843;SDS011;12921;51.392;12.240;2023-03-24T17:05:55;3.08;;;1.25;;
24843;SDS011;12921;51.392;12.240;2023-03-24T17:08:21;0.22;;;0.22;;
24843;SDS011;12921;51.392;12.240;2023-03-24T17:10:49;5.18;;;0.77;;
24843;SDS011;12921;51.392;12.240;2023-03-24T17:13:22;1.25;;;1.15;;
24843;SDS011;12921;51.392;12.240;2023-03-24T17:15:49;2.83;;;1.60;;
24843;SDS011;12921;51.392;12.240;2023-03-24T17:18:15;1.40;;;0.93;;
24843;SDS011;12921;51.392;12.240;2023-03-24T17:20:41;2.25;;;0.85;;
24843;SDS011;12921;51.392;12.240;2023-03-24T17:23:08;4.38;;;1.50;;